Flight Track Log - Related Links

Times and Time Zones

All times are in EDT time to prevent confusion due to time zone crossing. See the SWA2702 flight status page for this flight to view local times or setup timezone preferences in your user account.

Time Position Orientation Groundspeed Altitude Reporting Facility
EDT Latitude Longitude Course Direction KTS MPH feet Rate Location/Type
Tue 11:10:09 AM 33.6297 -117.8897 337° Northwest 146 168 2,500  Level Los Angeles Center
Tue 11:11:11 AM 33.5839 -117.8964 187° South 161 185 4,200 2,371 Climbing Los Angeles Center
Tue 11:12:13 AM 33.5236 -117.9294 205° Southwest 228 262 7,400 3,145 Climbing Los Angeles Center
Tue 11:13:15 AM 33.4400 -117.9858 209° Southwest 278 320 10,700 3,268 Climbing Los Angeles Center
Tue 11:14:16 AM 33.4222 -118.0806 257° West 295 339 14,100 3,512 Climbing Los Angeles Center
Tue 11:15:00 AM 33.3974 -118.4320 337° Northwest  Level FlightAware Approximate
Tue 11:15:18 AM 33.4072 -118.1814 260° West 304 350 17,900  Level Los Angeles Center
Tue 11:16:20 AM 33.3931 -118.2900 261° West 320 368 20,700 2,758 Climbing Los Angeles Center
Tue 11:17:22 AM 33.3819 -118.4067 264° West 347 399 23,600 2,613 Climbing Los Angeles Center
Tue 11:18:24 AM 33.4456 -118.5031 308° West 374 430 26,100 2,274 Climbing Los Angeles Center
Tue 11:19:26 AM 33.5233 -118.5950 315° West 387 445 28,300 2,081 Climbing Los Angeles Center
Tue 11:20:28 AM 33.6028 -118.6892 315° West 395 455 30,400 2,177 Climbing Los Angeles Center
Tue 11:21:30 AM 33.6847 -118.7806 317° Northwest 398 458 32,800 2,226 Climbing Los Angeles Center
Tue 11:22:32 AM 33.7819 -118.8867 318° Northwest 393 452 35,000 1,935 Climbing Los Angeles Center
Tue 11:23:34 AM 33.8631 -118.9772 317° Northwest 397 457 36,800 1,452 Climbing Los Angeles Center
Tue 11:24:36 AM 33.9433 -119.0664 317° Northwest 393 452 38,000 581 Climbing Los Angeles Center
Tue 11:25:38 AM 34.0244 -119.1542 318° Northwest 391 450 38,000  Level Los Angeles Center
Tue 11:26:39 AM 34.1047 -119.2436 317° Northwest 392 451 38,000  Level Los Angeles Center
Tue 11:27:41 AM 34.1836 -119.3333 317° Northwest 392 451 38,000  Level Los Angeles Center
Tue 11:28:43 AM 34.2628 -119.4217 317° Northwest 388 447 38,000  Level Los Angeles Center
Tue 11:29:45 AM 34.3583 -119.5275 318° Northwest 388 447 38,000  Level Los Angeles Center
Tue 11:30:47 AM 34.4378 -119.6153 318° Northwest 386 444 38,000  Level Los Angeles Center
Tue 11:31:49 AM 34.5144 -119.7056 316° Northwest 385 443 38,000  Level Los Angeles Center
Tue 11:32:51 AM 34.5931 -119.7942 317° Northwest 385 443 38,000  Level Los Angeles Center
Tue 11:33:52 AM 34.6694 -119.8783 318° Northwest 386 444 38,000  Level Los Angeles Center
Tue 11:34:54 AM 34.7619 -119.9850 317° Northwest 384 442 38,000  Level Los Angeles Center
Tue 11:35:56 AM 34.8403 -120.0728 317° Northwest 382 440 38,000  Level Los Angeles Center
Tue 11:36:58 AM 34.9214 -120.1661 317° Northwest 386 444 38,000  Level Los Angeles Center
Tue 11:38:00 AM 34.9997 -120.2556 317° Northwest 388 447 38,000  Level Los Angeles Center
Tue 11:39:02 AM 35.0778 -120.3450 317° Northwest 387 445 38,000  Level Los Angeles Center
Tue 11:40:04 AM 35.1567 -120.4356 317° Northwest 390 449 38,000  Level Los Angeles Center
Tue 11:41:05 AM 35.2339 -120.5239 317° Northwest 386 444 38,000  Level Los Angeles Center
Tue 11:42:07 AM 35.3103 -120.6128 316° Northwest 384 442 38,000  Level Los Angeles Center
Tue 11:43:09 AM 35.4125 -120.7103 322° Northwest 392 451 38,000  Level Los Angeles Center
Tue 11:43:30 AM 35.4336 -120.7314 321° Northwest 388 447 38,000  Level Oakland Center
Tue 11:44:32 AM 35.5197 -120.8103 323° Northwest 385 443 38,000  Level Oakland Center
Tue 11:45:33 AM 35.6053 -120.8892 323° Northwest 382 440 38,000  Level Oakland Center
Tue 11:46:34 AM 35.6903 -120.9683 323° Northwest 381 438 38,000  Level Oakland Center
Tue 11:47:36 AM 35.7917 -121.0611 323° Northwest 378 435 38,000  Level Oakland Center
Tue 11:48:37 AM 35.8767 -121.1397 323° Northwest 382 440 38,000  Level Oakland Center
Tue 11:49:38 AM 35.9606 -121.2183 323° Northwest 378 435 38,000  Level Oakland Center
Tue 11:50:39 AM 36.0453 -121.2969 323° Northwest 378 435 38,000  Level Oakland Center
Tue 11:51:41 AM 36.1297 -121.3778 322° Northwest 384 442 38,000 -49 Level Oakland Center
Tue 11:52:42 AM 36.2139 -121.4578 323° Northwest 380 437 37,900 -1,230 Descending Oakland Center
Tue 11:53:43 AM 36.2981 -121.5356 323° Northwest 376 433 35,500 -3,132 Descending Oakland Center
Tue 11:55:21 AM 36.4500 -121.6833 322° Northwest 371 427 29,600 -3,316 Descending Northern Cal TRACON
Tue 11:56:15 AM 36.5167 -121.7500 321° Northwest 360 414 27,100 -2,632 Descending Northern Cal TRACON
Tue 11:57:15 AM 36.5833 -121.8167 321° Northwest 371 427 24,600 -2,500 Descending Northern Cal TRACON
Tue 11:58:15 AM 36.6667 -121.8833 327° Northwest 391 450 22,100 -2,526 Descending Northern Cal TRACON
Tue 11:59:09 AM 36.7333 -121.9500 321° Northwest 311 358 19,800 -2,263 Descending Northern Cal TRACON
Tue 12:00:09 PM 36.8000 -121.9833 338° Northwest 301 346 17,800 -2,150 Descending Northern Cal TRACON
Tue 12:01:09 PM 36.8833 -122.0000 351° North 288 331 15,500 -2,321 Descending Northern Cal TRACON
Tue 12:01:55 PM 36.9394 -122.0147 348° North 285 328 13,700 -1,738 Descending Oakland Center
Tue 12:02:56 PM 37.0200 -122.0356 348° North 295 339 12,400 -1,574 Descending Oakland Center
Tue 12:03:57 PM 37.1031 -122.0581 348° North 304 350 10,500 -1,171 Descending Oakland Center
Tue 12:04:59 PM 37.1778 -122.0761 349° North 276 318 10,000 -878 Descending Oakland Center
Tue 12:06:00 PM 37.2456 -122.0947 348° North 255 293 8,700 -1,328 Descending Oakland Center
Tue 12:07:01 PM 37.3111 -122.1147 346° North 245 282 7,300 -1,512 Descending Oakland Center
Tue 12:08:03 PM 37.3767 -122.1319 348° North 242 278 5,600 -1,122 Descending Oakland Center
Tue 12:09:04 PM 37.4411 -122.1475 349° North 240 276 5,000 -492 Descending Oakland Center
Tue 12:10:05 PM 37.5044 -122.1669 346° North 213 245 4,600 -1,033 Descending Oakland Center
Tue 12:11:06 PM 37.5406 -122.2061 319° Northwest 185 213 2,900 -1,317 Descending Oakland Center
Tue 12:12:08 PM 37.5683 -122.2533 307° West 174 200 1,900 -878 Descending Oakland Center
Tue 12:13:09 PM 37.5867 -122.3014 296° West 163 188 1,100 -738 Descending Oakland Center
Tue 12:14:10 PM 37.6014 -122.3383 297° West 140 161 400 -390 Descending Oakland Center
Tue 12:15:12 PM 37.6167 -122.3731 299° West 136 157 300 -97 Descending Oakland Center
Tue 12:17:00 PM 37.6167 -122.3667 322° Northwest  Level FlightAware Approximate

Login

Don't have an account? Register now (free) for customized features, flight alerts, and more!